Time;durP1;ratioP1;P1;durP2;ratioP2;P2;SDS_P1;SDS_P2;PMS_P1;PMS_P2;Temp;Humidity;BMP_temperature;BMP_pressure;BME280_temperature;BME280_humidity;BME280_pressure;Samples;Min_cycle;Max_cycle;Signal;HPM_P1;HPM_P2
2022/09/24 00:01:20;;;;;;;;;;;;;;;9.78;74.31;101159.34;5053199;28;19938;-88
2022/09/24 00:03:55;;;;;;;;;;;;;;;9.72;74.13;101155.41;5024309;28;19972;-92
2022/09/24 00:09:25;;;;;;;;;;;;;;;9.64;74.31;101147.19;5054091;28;19916;-92
2022/09/24 00:11:52;;;;;;;;;;;;;;;9.55;74.48;101148.06;5016195;28;19928;-91
2022/09/24 00:14:18;;;;;;;;;;;;;;;9.49;74.33;101139.59;5049983;28;19923;-92
2022/09/24 00:16:44;;;;;;;;;;;;;;;9.47;74.13;101146.09;5052323;28;20016;-92
2022/09/24 00:19:10;;;;;;;;;;;;;;;9.50;73.68;101146.66;5033068;28;20377;-91
2022/09/24 00:21:36;;;;;;;;;;;;;;;9.50;73.47;101140.44;5035542;28;20361;-91
2022/09/24 00:27:10;;;;;;;;;;;;;;;9.46;73.22;101142.56;5038931;28;20308;-92
2022/09/24 00:29:35;;;;;;;;;;;;;;;9.38;73.25;101142.41;5046863;28;19920;-91
2022/09/24 00:32:02;;;;;;;;;;;;;;;9.33;73.56;101136.63;5045320;28;20365;-92
2022/09/24 00:34:28;;;;;;;;;;;;;;;9.36;73.42;101144.38;5032771;28;19967;-89
2022/09/24 00:36:53;;;;;;;;;;;;;;;9.35;73.27;101144.53;5046952;28;19971;-90
2022/09/24 00:39:19;;;;;;;;;;;;;;;9.33;73.25;101133.09;5009005;28;19912;-93
2022/09/24 00:41:47;;;;;;;;;;;;;;;9.35;73.24;101141.88;5046954;28;19934;-91
2022/09/24 00:44:31;;;;;;;;;;;;;;;9.44;72.85;101135.66;5049970;28;20357;-90
2022/09/24 00:46:59;;;;;;;;;;;;;;;9.33;73.04;101141.16;5047464;28;19924;-92
2022/09/24 00:49:24;;;;;;;;;;;;;;;9.36;72.95;101138.19;5014134;28;20023;-90
2022/09/24 00:51:50;;;;;;;;;;;;;;;9.34;73.05;101135.66;5024024;28;20014;-90
2022/09/24 00:54:18;;;;;;;;;;;;;;;9.32;72.89;101142.13;5031119;28;19974;-90
2022/09/24 00:56:44;;;;;;;;;;;;;;;9.21;73.04;101122.50;5002040;28;19940;-92
2022/09/24 00:59:11;;;;;;;;;;;;;;;9.29;73.18;101129.84;5028438;28;20373;-92
2022/09/24 01:01:37;;;;;;;;;;;;;;;9.34;72.96;101130.28;5032726;28;19931;-91
2022/09/24 01:04:06;;;;;;;;;;;;;;;9.34;72.69;101121.38;5049105;28;19917;-92
2022/09/24 01:06:32;;;;;;;;;;;;;;;9.27;73.09;101124.63;5030977;28;19968;-92
2022/09/24 01:08:57;;;;;;;;;;;;;;;9.27;73.05;101124.63;5046360;28;19997;-91
2022/09/24 01:11:32;;;;;;;;;;;;;;;9.26;73.25;101127.44;5014025;28;20448;-90
2022/09/24 01:14:18;;;;;;;;;;;;;;;9.30;72.85;101118.97;5029537;28;19922;-91
2022/09/24 01:17:02;;;;;;;;;;;;;;;9.30;72.93;101123.50;5053483;28;20023;-90
2022/09/24 01:19:46;;;;;;;;;;;;;;;9.27;73.01;101121.09;5054301;28;19916;-92
2022/09/24 01:22:30;;;;;;;;;;;;;;;9.20;73.25;101122.63;5027840;28;19913;-90
2022/09/24 01:24:57;;;;;;;;;;;;;;;9.18;73.10;101124.63;5051122;28;19917;-91
2022/09/24 01:27:55;;;;;;;;;;;;;;;9.12;73.36;101127.88;5033890;28;19917;-92
2022/09/24 01:30:24;;;;;;;;;;;;;;;9.16;72.84;101131.97;5056962;28;19951;-88
2022/09/24 01:33:17;;;;;;;;;;;;;;;9.16;72.78;101126.59;5056059;28;19924;-90
2022/09/24 01:35:44;;;;;;;;;;;;;;;9.11;73.11;101128.84;5032812;28;19939;-91
2022/09/24 01:38:20;;;;;;;;;;;;;;;9.08;73.34;101130.84;5029360;28;19921;-91
2022/09/24 01:40:47;;;;;;;;;;;;;;;9.08;73.29;101128.16;5026609;28;19991;-91
2022/09/24 01:43:13;;;;;;;;;;;;;;;9.07;73.14;101120.25;5035887;28;19975;-90
2022/09/24 01:45:39;;;;;;;;;;;;;;;9.02;73.43;101125.19;5020157;28;19959;-89
2022/09/24 01:48:04;;;;;;;;;;;;;;;9.01;73.56;101132.38;5073312;28;19956;-90
2022/09/24 01:50:32;;;;;;;;;;;;;;;9.01;73.51;101132.38;5058426;28;19907;-90
2022/09/24 01:53:00;;;;;;;;;;;;;;;8.94;73.93;101128.53;5049624;28;19920;-89
2022/09/24 01:55:27;;;;;;;;;;;;;;;8.91;74.25;101128.81;5052586;28;19916;-90
2022/09/24 01:58:00;;;;;;;;;;;;;;;8.88;74.23;101135.31;5031298;28;19917;-89
2022/09/24 02:00:25;;;;;;;;;;;;;;;8.87;74.27;101132.75;5044941;28;19920;-89
2022/09/24 02:02:54;;;;;;;;;;;;;;;8.85;74.25;101132.06;5035613;28;19935;-91
2022/09/24 02:05:23;;;;;;;;;;;;;;;8.83;74.05;101129.53;5051488;28;21611;-93
2022/09/24 02:08:10;;;;;;;;;;;;;;;8.77;74.33;101131.91;5034864;28;19916;-93
2022/09/24 02:10:37;;;;;;;;;;;;;;;8.72;74.61;101134.16;5050734;28;20356;-92
2022/09/24 02:13:03;;;;;;;;;;;;;;;8.69;74.59;101137.97;5022401;28;19920;-91
2022/09/24 02:15:33;;;;;;;;;;;;;;;8.72;74.45;101137.69;5042985;28;19917;-92
2022/09/24 02:17:59;;;;;;;;;;;;;;;8.69;74.68;101140.63;5036475;28;20009;-91
2022/09/24 02:20:26;;;;;;;;;;;;;;;8.60;74.95;101142.31;5046248;28;19912;-92
2022/09/24 02:22:52;;;;;;;;;;;;;;;8.62;74.73;101136.81;5035088;28;20300;-92
2022/09/24 02:25:21;;;;;;;;;;;;;;;8.68;74.48;101146.13;5035365;28;19920;-93
2022/09/24 02:27:48;;;;;;;;;;;;;;;8.70;74.31;101146.84;5027121;28;19917;-90
2022/09/24 02:30:14;;;;;;;;;;;;;;;8.67;74.29;101139.94;5035745;28;19920;-91
2022/09/24 02:32:40;;;;;;;;;;;;;;;8.70;74.29;101141.47;5018303;28;20007;-92
2022/09/24 02:35:07;;;;;;;;;;;;;;;8.64;74.49;101149.09;5017958;28;19928;-92
2022/09/24 02:37:33;;;;;;;;;;;;;;;8.62;74.49;101150.22;5006603;28;20316;-91
2022/09/24 02:40:01;;;;;;;;;;;;;;;8.59;74.74;101150.47;5054182;28;19921;-92
2022/09/24 02:42:27;;;;;;;;;;;;;;;8.59;74.74;101151.34;5052906;28;19920;-92
2022/09/24 02:44:56;;;;;;;;;;;;;;;8.67;74.41;101156.00;5023955;28;19943;-90
2022/09/24 02:47:22;;;;;;;;;;;;;;;8.69;74.58;101159.41;5017950;28;19996;-91
2022/09/24 02:49:47;;;;;;;;;;;;;;;8.73;74.21;101159.97;5031289;28;20009;-93
2022/09/24 02:55:17;;;;;;;;;;;;;;;8.93;73.51;101158.19;5078852;28;20019;-91
2022/09/24 02:57:47;;;;;;;;;;;;;;;8.97;73.24;101162.31;5061833;28;19904;-93
2022/09/24 03:03:20;;;;;;;;;;;;;;;9.01;72.86;101161.88;5067787;28;19909;-93
2022/09/24 03:05:47;;;;;;;;;;;;;;;9.03;72.74;101164.41;5062703;28;19912;-92
2022/09/24 03:08:13;;;;;;;;;;;;;;;9.01;72.83;101159.22;5065436;28;19935;-91
2022/09/24 03:10:39;;;;;;;;;;;;;;;9.01;73.05;101166.38;5074082;28;19925;-91
2022/09/24 03:13:05;;;;;;;;;;;;;;;9.05;72.92;101168.66;5040644;28;19970;-92
2022/09/24 03:15:32;;;;;;;;;;;;;;;9.02;73.11;101171.63;5019407;28;19917;-92
2022/09/24 03:17:59;;;;;;;;;;;;;;;9.03;72.97;101175.13;5031290;28;19924;-92
2022/09/24 03:20:26;;;;;;;;;;;;;;;9.07;72.84;101166.69;5034859;28;19923;-92
2022/09/24 03:22:51;;;;;;;;;;;;;;;9.04;72.89;101171.50;5022629;28;19924;-91
2022/09/24 03:25:17;;;;;;;;;;;;;;;8.95;73.25;101173.16;5034989;28;19923;-91
2022/09/24 03:27:44;;;;;;;;;;;;;;;8.93;73.43;101176.97;5022864;28;20389;-93
2022/09/24 03:32:55;;;;;;;;;;;;;;;9.00;73.25;101170.91;5038994;28;19990;-93
2022/09/24 03:35:25;;;;;;;;;;;;;;;8.97;73.34;101175.72;5033239;28;19935;-92
2022/09/24 03:37:50;;;;;;;;;;;;;;;8.92;73.50;101178.81;5033891;28;19924;-92
2022/09/24 03:40:16;;;;;;;;;;;;;;;8.83;73.77;101188.50;5034406;28;19920;-91
2022/09/24 03:42:44;;;;;;;;;;;;;;;8.84;73.65;101179.47;5034210;28;20296;-92
2022/09/24 03:45:11;;;;;;;;;;;;;;;8.80;73.93;101186.13;5033145;28;19970;-92
2022/09/24 03:47:36;;;;;;;;;;;;;;;8.84;73.77;101186.66;5032482;28;20318;-92
2022/09/24 03:50:06;;;;;;;;;;;;;;;8.82;73.79;101189.47;5050075;28;19916;-90
2022/09/24 03:52:31;;;;;;;;;;;;;;;8.84;73.63;101184.84;5033443;28;20328;-91
2022/09/24 03:54:58;;;;;;;;;;;;;;;8.83;73.69;101190.34;5016768;28;19924;-91
2022/09/24 03:57:24;;;;;;;;;;;;;;;8.83;73.78;101185.00;5032827;28;19912;-91
2022/09/24 03:59:52;;;;;;;;;;;;;;;8.81;73.95;101197.69;5031238;28;19939;-91
2022/09/24 04:02:18;;;;;;;;;;;;;;;8.79;74.05;101200.47;5039760;28;19924;-91
2022/09/24 04:04:44;;;;;;;;;;;;;;;8.91;73.75;101192.34;5052883;28;19919;-92
2022/09/24 04:07:09;;;;;;;;;;;;;;;8.93;73.90;101198.41;5015604;28;20008;-92
2022/09/24 04:09:36;;;;;;;;;;;;;;;8.95;73.89;101210.69;5010837;28;20008;-93
2022/09/24 04:12:01;;;;;;;;;;;;;;;8.93;73.54;101223.41;5032362;28;19921;-92
2022/09/24 04:14:27;;;;;;;;;;;;;;;8.91;73.54;101220.00;5033221;28;19982;-89
2022/09/24 04:16:54;;;;;;;;;;;;;;;8.96;73.18;101219.59;5029642;28;19916;-92
2022/09/24 04:19:21;;;;;;;;;;;;;;;8.91;73.09;101222.69;5018801;28;19989;-92
2022/09/24 04:21:47;;;;;;;;;;;;;;;8.82;73.77;101231.53;5047678;28;19916;-92
2022/09/24 04:24:13;;;;;;;;;;;;;;;8.87;73.46;101232.84;5013521;28;20031;-92
2022/09/24 04:26:40;;;;;;;;;;;;;;;8.82;73.94;101231.53;5048017;28;19936;-91
2022/09/24 04:29:06;;;;;;;;;;;;;;;8.76;74.26;101242.81;5050269;28;19969;-91
2022/09/24 04:31:33;;;;;;;;;;;;;;;8.72;74.89;101244.06;5029485;28;19921;-91
2022/09/24 04:34:00;;;;;;;;;;;;;;;8.64;75.63;101248.28;5032609;28;19927;-90
2022/09/24 04:36:26;;;;;;;;;;;;;;;8.65;75.16;101246.44;5023504;28;20389;-89
2022/09/24 04:38:53;;;;;;;;;;;;;;;8.66;74.54;101253.47;5055218;28;19916;-89
2022/09/24 04:41:19;;;;;;;;;;;;;;;8.74;74.40;101252.84;5021414;28;19921;-90
2022/09/24 04:43:50;;;;;;;;;;;;;;;8.77;73.77;101256.06;5032730;28;19920;-91
2022/09/24 04:46:17;;;;;;;;;;;;;;;8.81;73.58;101256.66;5034798;28;20013;-91
2022/09/24 04:48:43;;;;;;;;;;;;;;;8.83;73.07;101255.53;5048335;28;20406;-93
2022/09/24 04:51:10;;;;;;;;;;;;;;;8.94;72.51;101262.63;5034163;28;19924;-91
2022/09/24 04:53:38;;;;;;;;;;;;;;;8.99;72.03;101265.78;5031523;28;20389;-94
2022/09/24 04:56:03;;;;;;;;;;;;;;;9.08;71.48;101256.03;5009064;28;19928;-92
2022/09/24 04:58:29;;;;;;;;;;;;;;;9.07;71.19;101271.28;5052606;28;19956;-92
2022/09/24 05:00:55;;;;;;;;;;;;;;;9.26;70.42;101266.97;5033218;28;20007;-91
2022/09/24 05:03:27;;;;;;;;;;;;;;;9.37;69.94;101261.50;5037321;28;20448;-91
2022/09/24 05:05:52;;;;;;;;;;;;;;;9.46;69.72;101262.50;5031827;28;19913;-92
2022/09/24 05:08:17;;;;;;;;;;;;;;;9.53;70.26;101263.66;5024117;28;20696;-93
2022/09/24 05:10:43;;;;;;;;;;;;;;;9.70;70.40;101264.78;5014843;28;19913;-93
2022/09/24 05:13:09;;;;;;;;;;;;;;;9.77;69.98;101259.69;5033924;28;20410;-93
2022/09/24 05:15:35;;;;;;;;;;;;;;;9.90;69.26;101260.25;5018403;28;19917;-94
2022/09/24 05:18:02;;;;;;;;;;;;;;;9.87;69.92;101264.06;5014083;28;19972;-93
2022/09/24 05:20:29;;;;;;;;;;;;;;;9.98;69.62;101267.63;5032301;28;19916;-90
2022/09/24 05:22:55;;;;;;;;;;;;;;;10.05;69.02;101264.22;5035510;28;19917;-93
2022/09/24 05:25:22;;;;;;;;;;;;;;;10.16;68.71;101271.28;5037920;28;19963;-90
2022/09/24 05:27:51;;;;;;;;;;;;;;;10.21;68.21;101268.13;5048064;28;20392;-91
2022/09/24 05:30:18;;;;;;;;;;;;;;;10.18;68.13;101274.63;5029950;28;19923;-90
2022/09/24 05:32:48;;;;;;;;;;;;;;;10.32;68.53;101270.69;5026412;28;19921;-91
2022/09/24 05:35:16;;;;;;;;;;;;;;;10.51;68.21;101269.81;5050802;28;19908;-92
2022/09/24 05:37:44;;;;;;;;;;;;;;;11.05;67.15;101278.97;5020940;28;19924;-89
2022/09/24 05:43:02;;;;;;;;;;;;;;;12.86;61.35;101271.47;5042833;28;19923;-88
2022/09/24 05:45:28;;;;;;;;;;;;;;;13.40;58.24;101263.13;5033016;28;19916;-91
2022/09/24 05:47:55;;;;;;;;;;;;;;;13.90;56.23;101266.75;5026194;28;19966;-91
2022/09/24 05:50:21;;;;;;;;;;;;;;;14.51;54.36;101278.88;5030866;28;19924;-91
2022/09/24 05:53:04;;;;;;;;;;;;;;;15.08;53.41;101277.09;5051727;28;19936;-91
2022/09/24 05:55:29;;;;;;;;;;;;;;;15.43;51.33;101277.56;5047377;28;19928;-90
2022/09/24 05:57:55;;;;;;;;;;;;;;;15.56;50.44;101283.25;5034781;28;20308;-89
2022/09/24 06:00:20;;;;;;;;;;;;;;;16.00;48.87;101288.06;5035634;28;19920;-92
2022/09/24 06:02:49;;;;;;;;;;;;;;;16.36;48.39;101284.72;5050907;28;19924;-90
2022/09/24 06:05:15;;;;;;;;;;;;;;;16.62;47.18;101298.72;5057620;28;19928;-92
2022/09/24 06:07:41;;;;;;;;;;;;;;;16.65;46.11;101295.63;5031568;28;20269;-88
2022/09/24 06:10:07;;;;;;;;;;;;;;;16.94;45.56;101302.13;5050733;28;19955;-89
2022/09/24 06:12:35;;;;;;;;;;;;;;;17.22;44.75;101290.59;5056287;28;20003;-91
2022/09/24 06:15:02;;;;;;;;;;;;;;;17.29;44.36;101302.41;5035280;28;19921;-92
2022/09/24 06:17:41;;;;;;;;;;;;;;;17.45;43.58;101304.91;5043824;28;19969;-92
2022/09/24 06:20:09;;;;;;;;;;;;;;;17.72;43.51;101316.06;5040218;28;19970;-91
2022/09/24 06:22:43;;;;;;;;;;;;;;;17.81;43.88;101314.94;5049942;28;19965;-92
2022/09/24 06:25:08;;;;;;;;;;;;;;;18.17;42.91;101308.63;5051232;28;20407;-85
2022/09/24 06:27:34;;;;;;;;;;;;;;;18.44;42.09;101311.56;5049976;28;19960;-85
2022/09/24 06:29:59;;;;;;;;;;;;;;;18.75;42.33;101314.75;5047311;28;19913;-87
2022/09/24 06:32:24;;;;;;;;;;;;;;;18.97;41.30;101309.25;5052729;28;19916;-92
2022/09/24 06:34:51;;;;;;;;;;;;;;;19.09;41.44;101315.81;5034652;28;19947;-90
2022/09/24 06:37:16;;;;;;;;;;;;;;;19.42;40.72;101312.41;5054868;28;19967;-94
2022/09/24 06:39:42;;;;;;;;;;;;;;;19.63;40.37;101311.44;5048166;28;19924;-85
2022/09/24 06:42:07;;;;;;;;;;;;;;;19.61;40.13;101311.63;5052317;28;19920;-84
2022/09/24 06:44:34;;;;;;;;;;;;;;;19.90;39.05;101306.94;5049074;28;19921;-89
2022/09/24 06:47:00;;;;;;;;;;;;;;;19.96;37.99;101307.97;5039618;28;20520;-87
2022/09/24 06:49:26;;;;;;;;;;;;;;;20.20;38.29;101293.72;5052299;28;20349;-87
2022/09/24 06:51:52;;;;;;;;;;;;;;;20.48;37.35;101313.69;5053427;28;19916;-86
2022/09/24 06:54:18;;;;;;;;;;;;;;;20.40;36.30;101312.84;5027311;28;20381;-86
2022/09/24 06:56:43;;;;;;;;;;;;;;;20.48;35.76;101327.34;5035705;28;19982;-85
2022/09/24 06:59:09;;;;;;;;;;;;;;;20.52;34.29;101306.75;5053365;28;19920;-86
2022/09/24 07:01:35;;;;;;;;;;;;;;;20.27;34.70;101315.56;5043816;28;19973;-87
2022/09/24 07:04:00;;;;;;;;;;;;;;;20.56;34.40;101313.53;5056985;28;19920;-85
2022/09/24 07:07:27;;;;;;;;;;;;;;;20.63;34.19;101314.34;5061992;28;19913;-85
2022/09/24 07:09:11;;;;;;;;;;;;;;;20.58;34.14;101311.38;5063820;28;19948;-86
2022/09/24 07:14:30;;;;;;;;;;;;;;;20.86;32.99;101305.69;5060125;28;19920;-86
2022/09/24 07:16:55;;;;;;;;;;;;;;;20.76;33.03;101316.22;5069735;28;19940;-82
2022/09/24 07:19:20;;;;;;;;;;;;;;;21.38;32.61;101308.50;5049047;28;19917;-84
2022/09/24 07:21:46;;;;;;;;;;;;;;;21.75;32.30;101319.69;5049961;28;19917;-85
2022/09/24 07:24:11;;;;;;;;;;;;;;;21.83;31.57;101316.72;5053065;28;19970;-87
2022/09/24 07:26:37;;;;;;;;;;;;;;;22.40;30.44;101312.09;5053184;28;19921;-86
2022/09/24 07:29:02;;;;;;;;;;;;;;;23.03;29.59;101313.00;5052925;28;20043;-85
2022/09/24 07:31:28;;;;;;;;;;;;;;;23.27;29.57;101312.13;5040490;28;19963;-85
2022/09/24 07:33:53;;;;;;;;;;;;;;;24.22;28.79;101307.84;5038986;28;19934;-85
2022/09/24 07:36:18;;;;;;;;;;;;;;;24.78;27.55;101300.16;5034294;28;19919;-88
2022/09/24 07:38:44;;;;;;;;;;;;;;;23.96;28.40;101303.59;5051918;28;19917;-85
2022/09/24 07:41:12;;;;;;;;;;;;;;;24.44;27.95;101306.22;5052301;28;19924;-86
2022/09/24 07:43:37;;;;;;;;;;;;;;;24.47;27.77;101302.19;5024368;28;20000;-85
2022/09/24 07:46:03;;;;;;;;;;;;;;;25.39;26.79;101301.50;5034647;28;20355;-86
2022/09/24 07:48:31;;;;;;;;;;;;;;;25.70;25.99;101299.34;5053736;28;19925;-86
2022/09/24 07:50:56;;;;;;;;;;;;;;;26.42;25.13;101304.22;5034462;28;19944;-85
2022/09/24 07:53:23;;;;;;;;;;;;;;;26.40;24.95;101313.81;5033601;28;19973;-87
2022/09/24 07:55:48;;;;;;;;;;;;;;;26.87;24.27;101313.47;5034891;28;19970;-86
2022/09/24 07:58:23;;;;;;;;;;;;;;;27.32;23.25;101315.19;5051957;28;19912;-86
2022/09/24 08:00:50;;;;;;;;;;;;;;;28.07;22.56;101312.72;5050219;28;19982;-86
2022/09/24 08:03:15;;;;;;;;;;;;;;;29.16;21.84;101308.56;5043274;28;19916;-88
2022/09/24 08:05:41;;;;;;;;;;;;;;;30.44;20.43;101311.63;5061548;28;19978;-85
2022/09/24 08:08:07;;;;;;;;;;;;;;;30.31;20.06;101322.44;5050891;28;19924;-87
2022/09/24 08:10:32;;;;;;;;;;;;;;;30.17;20.12;101322.13;5055245;28;19916;-84
2022/09/24 08:13:00;;;;;;;;;;;;;;;30.58;19.31;101316.59;5050831;28;19917;-85
2022/09/24 08:15:25;;;;;;;;;;;;;;;31.32;18.80;101315.03;5008961;28;20013;-86
2022/09/24 08:17:53;;;;;;;;;;;;;;;31.06;18.74;101309.56;5010303;28;20453;-87
2022/09/24 08:20:22;;;;;;;;;;;;;;;30.59;18.82;101323.81;4992375;28;20016;-92
2022/09/24 08:23:00;;;;;;;;;;;;;;;31.47;18.27;101311.41;4977620;28;19960;-87
2022/09/24 08:25:32;;;;;;;;;;;;;;;31.93;17.75;101322.22;4995176;28;19933;-88
2022/09/24 08:28:11;;;;;;;;;;;;;;;32.28;17.18;101314.75;5010780;28;20393;-87
2022/09/24 08:30:39;;;;;;;;;;;;;;;32.12;17.49;101302.91;5007650;28;20381;-89
2022/09/24 08:33:09;;;;;;;;;;;;;;;33.60;16.53;101306.09;5001803;28;19948;-91
2022/09/24 08:35:38;;;;;;;;;;;;;;;33.96;15.81;101288.81;4997351;28;19941;-90
2022/09/24 08:38:06;;;;;;;;;;;;;;;34.52;15.00;101304.63;4991575;28;20020;-90
2022/09/24 08:40:45;;;;;;;;;;;;;;;33.86;15.64;101292.59;4995192;28;20446;-91
2022/09/24 08:43:13;;;;;;;;;;;;;;;32.97;16.25;101288.47;5003252;28;19913;-90
2022/09/24 08:48:36;;;;;;;;;;;;;;;33.16;16.18;101282.16;5042631;28;19959;-87
2022/09/24 08:51:11;;;;;;;;;;;;;;;34.47;15.24;101282.38;5041460;28;20423;-89
2022/09/24 08:53:49;;;;;;;;;;;;;;;34.76;14.69;101290.50;5012881;28;19927;-92
2022/09/24 08:56:18;;;;;;;;;;;;;;;36.21;13.70;101292.63;5040482;28;19925;-87
2022/09/24 08:58:44;;;;;;;;;;;;;;;35.68;14.16;101290.56;5020863;28;19948;-90
2022/09/24 09:01:09;;;;;;;;;;;;;;;35.67;14.35;101286.13;5018840;28;20416;-86
2022/09/24 09:04:03;;;;;;;;;;;;;;;35.87;13.47;101277.25;5039780;28;19917;-94
2022/09/24 09:06:30;;;;;;;;;;;;;;;37.05;13.07;101282.50;5023015;28;20289;-91
2022/09/24 09:09:20;;;;;;;;;;;;;;;35.34;13.88;101279.84;5051389;28;20008;-95
2022/09/24 09:12:07;;;;;;;;;;;;;;;35.69;13.73;101272.66;5029459;28;19905;-94
2022/09/24 09:14:39;;;;;;;;;;;;;;;37.30;12.49;101271.69;5037159;28;19921;-89
2022/09/24 09:17:45;;;;;;;;;;;;;;;36.86;12.34;101284.75;5054308;28;19921;-89
2022/09/24 09:20:43;;;;;;;;;;;;;;;37.46;12.66;101281.28;4988095;28;19922;-91
2022/09/24 09:23:12;;;;;;;;;;;;;;;37.04;12.00;101283.66;5027720;28;20536;-87
2022/09/24 09:25:42;;;;;;;;;;;;;;;37.58;12.54;101267.47;5026476;28;20003;-90
2022/09/24 09:28:16;;;;;;;;;;;;;;;37.69;12.12;101270.75;5040711;28;19939;-90
2022/09/24 09:30:54;;;;;;;;;;;;;;;39.02;11.15;101268.13;5019993;28;19942;-91
2022/09/24 09:33:22;;;;;;;;;;;;;;;39.63;10.65;101270.53;5039545;28;19924;-90
2022/09/24 09:35:50;;;;;;;;;;;;;;;39.98;10.45;101276.69;5051250;28;20446;-89
2022/09/24 09:38:17;;;;;;;;;;;;;;;39.62;10.18;101263.28;5014836;28;19917;-90
2022/09/24 09:40:49;;;;;;;;;;;;;;;39.16;10.61;101257.47;5047806;28;19916;-88
2022/09/24 09:43:14;;;;;;;;;;;;;;;38.26;10.73;101249.25;5031926;28;20369;-88
2022/09/24 09:45:46;;;;;;;;;;;;;;;37.52;11.67;101262.31;5052716;28;19923;-89
2022/09/24 09:48:16;;;;;;;;;;;;;;;37.74;10.93;101252.94;5035175;28;19913;-92
2022/09/24 09:50:48;;;;;;;;;;;;;;;36.45;11.70;101258.69;5029755;28;20381;-92
2022/09/24 09:53:22;;;;;;;;;;;;;;;36.24;12.25;101241.59;5035707;28;19917;-92
2022/09/24 09:55:50;;;;;;;;;;;;;;;34.57;13.09;101245.06;5052465;28;20415;-92
2022/09/24 09:58:20;;;;;;;;;;;;;;;36.42;11.95;101238.91;5049963;28;19921;-91
2022/09/24 10:00:49;;;;;;;;;;;;;;;36.05;11.65;101240.97;5032008;28;20369;-89
2022/09/24 10:03:29;;;;;;;;;;;;;;;36.22;11.60;101254.28;5025054;28;19917;-91
2022/09/24 10:05:55;;;;;;;;;;;;;;;36.38;11.38;101258.31;5019955;28;19917;-90
2022/09/24 10:08:22;;;;;;;;;;;;;;;36.50;10.95;101249.31;5029202;28;19921;-92
2022/09/24 10:10:55;;;;;;;;;;;;;;;35.41;11.78;101236.34;5020150;28;19920;-93
2022/09/24 10:13:22;;;;;;;;;;;;;;;35.50;12.43;101245.63;5042411;28;19995;-90
2022/09/24 10:15:59;;;;;;;;;;;;;;;35.12;11.87;101233.91;5033584;28;19925;-93
2022/09/24 10:18:40;;;;;;;;;;;;;;;36.21;11.68;101247.84;5044474;28;19990;-93
2022/09/24 10:21:10;;;;;;;;;;;;;;;36.17;11.52;101249.63;5034620;28;19923;-92
2022/09/24 10:23:42;;;;;;;;;;;;;;;36.37;11.12;101244.66;5032119;28;20003;-93
2022/09/24 10:26:09;;;;;;;;;;;;;;;36.26;11.39;101247.72;5056696;28;20015;-89
2022/09/24 10:31:23;;;;;;;;;;;;;;;36.54;11.06;101250.31;5038833;28;19926;-92
2022/09/24 10:33:51;;;;;;;;;;;;;;;38.07;10.15;101244.00;5036296;28;20328;-91
2022/09/24 10:36:17;;;;;;;;;;;;;;;37.05;10.25;101248.88;5034818;28;19952;-91
2022/09/24 10:38:43;;;;;;;;;;;;;;;37.65;10.05;101238.09;5026012;28;20365;-91
2022/09/24 10:41:16;;;;;;;;;;;;;;;37.97;10.08;101233.94;5033510;28;19921;-92
2022/09/24 10:43:52;;;;;;;;;;;;;;;36.32;10.27;101240.03;5033443;28;19919;-91
2022/09/24 10:46:37;;;;;;;;;;;;;;;37.05;9.67;101231.25;5016277;28;19917;-92
2022/09/24 10:49:08;;;;;;;;;;;;;;;36.69;9.84;101230.34;5036565;28;19917;-94
2022/09/24 10:51:40;;;;;;;;;;;;;;;35.56;11.03;101234.34;5031230;28;19917;-91
2022/09/24 10:54:06;;;;;;;;;;;;;;;35.52;10.87;101222.97;5031655;28;19928;-91
2022/09/24 10:56:43;;;;;;;;;;;;;;;34.24;11.72;101237.56;5033895;28;19913;-91
2022/09/24 10:59:24;;;;;;;;;;;;;;;33.97;11.92;101227.13;5014373;28;19975;-90
2022/09/24 11:02:13;;;;;;;;;;;;;;;33.61;12.44;101241.66;5033460;28;19925;-91
2022/09/24 11:04:57;;;;;;;;;;;;;;;30.55;15.20;101226.44;5018214;28;19917;-94
2022/09/24 11:07:24;;;;;;;;;;;;;;;30.38;15.60;101223.97;5040236;28;19952;-90
2022/09/24 11:10:16;;;;;;;;;;;;;;;30.97;15.16;101225.22;5044888;28;19925;-90
2022/09/24 11:12:54;;;;;;;;;;;;;;;32.20;14.01;101229.97;4991524;28;19913;-91
2022/09/24 11:15:38;;;;;;;;;;;;;;;33.38;13.57;101220.25;5021611;28;19927;-90
2022/09/24 11:18:22;;;;;;;;;;;;;;;33.30;12.83;101221.78;5018497;28;19936;-92
2022/09/24 11:21:07;;;;;;;;;;;;;;;33.10;12.76;101214.50;5032597;28;19979;-91
2022/09/24 11:23:36;;;;;;;;;;;;;;;31.54;13.58;101201.59;5044102;28;19913;-92
2022/09/24 11:26:02;;;;;;;;;;;;;;;29.87;15.44;101212.91;5029268;28;19968;-90
2022/09/24 11:28:30;;;;;;;;;;;;;;;28.60;16.29;101212.22;5020238;28;20013;-94
2022/09/24 11:31:01;;;;;;;;;;;;;;;27.82;17.15;101211.06;5032581;28;19971;-93
2022/09/24 11:33:34;;;;;;;;;;;;;;;28.48;17.15;101214.38;5016604;28;20338;-92
2022/09/24 11:36:19;;;;;;;;;;;;;;;26.86;18.43;101205.06;5045165;28;19912;-92
2022/09/24 11:38:51;;;;;;;;;;;;;;;26.94;18.69;101212.03;5053010;28;19921;-91
2022/09/24 11:41:25;;;;;;;;;;;;;;;27.27;18.12;101204.72;5063325;28;19992;-92
2022/09/24 11:43:51;;;;;;;;;;;;;;;28.32;17.54;101205.09;5045235;28;20024;-91
2022/09/24 11:46:22;;;;;;;;;;;;;;;28.01;17.42;101193.00;5065279;28;19905;-90
2022/09/24 11:48:54;;;;;;;;;;;;;;;26.82;18.46;101197.53;5023772;28;19942;-88
2022/09/24 11:51:25;;;;;;;;;;;;;;;25.99;19.06;101191.91;5043822;28;19951;-88
2022/09/24 11:53:50;;;;;;;;;;;;;;;25.43;19.84;101200.84;5034448;28;19984;-89
2022/09/24 11:56:34;;;;;;;;;;;;;;;24.94;19.82;101194.06;5046553;28;19921;-90
2022/09/24 11:59:13;;;;;;;;;;;;;;;25.05;19.87;101190.41;5030708;28;20239;-90
2022/09/24 12:01:39;;;;;;;;;;;;;;;25.23;19.76;101195.78;5032360;28;20403;-90
2022/09/24 12:04:09;;;;;;;;;;;;;;;24.80;20.10;101196.25;5034559;28;19924;-90
2022/09/24 12:06:51;;;;;;;;;;;;;;;24.46;20.06;101197.94;5035402;28;20581;-90
2022/09/24 12:09:16;;;;;;;;;;;;;;;24.01;20.88;101204.88;5052656;28;19924;-89
2022/09/24 12:11:45;;;;;;;;;;;;;;;23.94;21.28;101195.91;5053643;28;19916;-91
2022/09/24 12:14:14;;;;;;;;;;;;;;;23.67;21.55;101196.31;5015341;28;19917;-88
2022/09/24 12:16:39;;;;;;;;;;;;;;;24.17;21.18;101195.91;5034474;28;19916;-90
2022/09/24 12:19:12;;;;;;;;;;;;;;;23.86;21.69;101197.09;5013956;28;19924;-90
2022/09/24 12:21:46;;;;;;;;;;;;;;;23.51;21.87;101192.31;5020420;28;20316;-91
2022/09/24 12:24:12;;;;;;;;;;;;;;;23.34;22.32;101213.25;5021311;28;20374;-89
2022/09/24 12:26:38;;;;;;;;;;;;;;;23.05;22.64;101212.16;5031759;28;19924;-86
2022/09/24 12:34:46;;;;;;;;;;;;;;;23.20;23.20;101201.59;5045335;28;20015;-91
2022/09/24 12:37:15;;;;;;;;;;;;;;;23.06;22.93;101194.63;5034191;28;20369;-90
2022/09/24 12:39:43;;;;;;;;;;;;;;;22.99;22.55;101191.97;5041515;28;19924;-91
2022/09/24 12:42:09;;;;;;;;;;;;;;;23.34;22.48;101194.91;5015799;28;19964;-90
2022/09/24 12:44:42;;;;;;;;;;;;;;;23.63;21.50;101192.34;5030121;28;19958;-90
2022/09/24 12:47:41;;;;;;;;;;;;;;;23.83;21.03;101188.47;5037713;28;19913;-91
2022/09/24 12:50:18;;;;;;;;;;;;;;;23.80;20.97;101190.63;5030963;28;20377;-92
2022/09/24 12:52:45;;;;;;;;;;;;;;;23.79;21.29;101199.94;5039036;28;19955;-91
2022/09/24 12:55:36;;;;;;;;;;;;;;;23.72;21.08;101193.69;5029852;28;19998;-94
2022/09/24 12:58:24;;;;;;;;;;;;;;;23.22;21.23;101204.13;5034897;28;19924;-93
2022/09/24 13:00:52;;;;;;;;;;;;;;;23.32;21.64;101210.75;5026529;28;19913;-88
2022/09/24 13:03:37;;;;;;;;;;;;;;;23.32;21.90;101194.28;5029485;28;20424;-90
2022/09/24 13:09:37;;;;;;;;;;;;;;;22.88;22.64;101210.00;5065337;28;19911;-93
2022/09/24 13:12:46;;;;;;;;;;;;;;;22.51;23.25;101201.78;5075269;28;19917;-92
2022/09/24 13:15:41;;;;;;;;;;;;;;;22.31;23.53;101203.88;4990365;28;20461;-87
2022/09/24 13:18:42;;;;;;;;;;;;;;;22.19;23.59;101202.91;4992422;28;19958;-91
2022/09/24 13:21:16;;;;;;;;;;;;;;;22.06;24.18;101201.97;5049846;28;19917;-91
2022/09/24 13:23:45;;;;;;;;;;;;;;;22.06;24.23;101201.16;5028367;28;20003;-91
2022/09/24 13:26:25;;;;;;;;;;;;;;;21.81;23.76;101198.41;5028478;28;20369;-89
2022/09/24 13:28:57;;;;;;;;;;;;;;;22.07;24.04;101197.34;5041591;28;19987;-92
2022/09/24 13:31:25;;;;;;;;;;;;;;;22.10;24.19;101192.25;5005945;28;19950;-92